Time;durP1;ratioP1;P1;durP2;ratioP2;P2;SDS_P1;SDS_P2;PMS_P1;PMS_P2;Temp;Humidity;BMP_temperature;BMP_pressure;BME280_temperature;BME280_humidity;BME280_pressure;Samples;Min_cycle;Max_cycle;Signal;HPM_P1;HPM_P2
2023/09/09 00:01:55;;;;;;;;;;;;;;;17.49;100.00;95865.94;10467245;28;1520;-78
2023/09/09 00:07:02;;;;;;;;;;;;;;;17.39;100.00;95871.66;10463531;28;1983;-80
2023/09/09 00:12:08;;;;;;;;;;;;;;;17.26;100.00;95874.19;10477963;28;1353;-79
2023/09/09 00:17:12;;;;;;;;;;;;;;;17.21;100.00;95877.03;10495750;28;1059;-79
2023/09/09 00:22:17;;;;;;;;;;;;;;;17.37;100.00;95874.72;10463999;28;1425;-79
2023/09/09 00:27:20;;;;;;;;;;;;;;;17.35;100.00;95866.06;10477702;28;1917;-79
2023/09/09 00:32:27;;;;;;;;;;;;;;;17.18;100.00;95866.00;10483566;28;1162;-79
2023/09/09 00:37:32;;;;;;;;;;;;;;;17.14;100.00;95868.53;10467687;28;1432;-79
2023/09/09 00:42:38;;;;;;;;;;;;;;;17.27;100.00;95872.25;10465140;28;1365;-79
2023/09/09 00:47:42;;;;;;;;;;;;;;;17.19;100.00;95857.53;10484202;28;1914;-79
2023/09/09 00:52:48;;;;;;;;;;;;;;;17.13;100.00;95858.00;10469399;28;1370;-79
2023/09/09 00:57:57;;;;;;;;;;;;;;;17.06;100.00;95853.00;10456109;28;1167;-79
2023/09/09 01:03:17;;;;;;;;;;;;;;;17.06;100.00;95860.34;10463123;28;1586;-78
2023/09/09 01:08:21;;;;;;;;;;;;;;;17.12;100.00;95857.19;10449402;28;1906;-78
2023/09/09 01:13:26;;;;;;;;;;;;;;;16.99;100.00;95852.66;10478077;28;1052;-79
2023/09/09 01:18:31;;;;;;;;;;;;;;;16.86;100.00;95856.25;10478544;28;1507;-79
2023/09/09 01:23:34;;;;;;;;;;;;;;;16.84;100.00;95840.25;10455009;28;1558;-78
2023/09/09 01:28:38;;;;;;;;;;;;;;;16.83;100.00;95841.38;10459734;28;1985;-79
2023/09/09 01:33:44;;;;;;;;;;;;;;;16.74;100.00;95848.69;10469021;28;1571;-79
2023/09/09 01:39:03;;;;;;;;;;;;;;;16.64;100.00;95849.72;10473285;28;1530;-78
2023/09/09 01:44:07;;;;;;;;;;;;;;;16.72;100.00;95854.41;10476038;28;5084;-78
2023/09/09 01:49:13;;;;;;;;;;;;;;;16.63;100.00;95856.25;10429870;28;1988;-78
2023/09/09 01:54:20;;;;;;;;;;;;;;;16.60;100.00;95856.84;10448507;28;1511;-79
2023/09/09 01:59:32;;;;;;;;;;;;;;;16.54;100.00;95852.69;10448599;28;1439;-78
2023/09/09 02:04:38;;;;;;;;;;;;;;;16.52;100.00;95845.94;10469698;28;1986;-79
2023/09/09 02:09:44;;;;;;;;;;;;;;;16.57;100.00;95852.06;10477063;28;1503;-79
2023/09/09 02:14:47;;;;;;;;;;;;;;;16.57;100.00;95841.22;10457764;28;1432;-77
2023/09/09 02:19:50;;;;;;;;;;;;;;;16.51;100.00;95847.88;10480061;28;1520;-77
2023/09/09 02:24:54;;;;;;;;;;;;;;;16.51;100.00;95838.94;10483994;28;1914;-78
2023/09/09 02:29:59;;;;;;;;;;;;;;;16.52;100.00;95840.53;10452796;28;1112;-78
2023/09/09 02:35:07;;;;;;;;;;;;;;;16.51;100.00;95847.06;10475182;28;1523;-77
2023/09/09 02:40:13;;;;;;;;;;;;;;;16.63;100.00;95845.41;10473410;28;5670;-77
2023/09/09 02:45:22;;;;;;;;;;;;;;;16.52;100.00;95845.94;10489996;28;1914;-78
2023/09/09 02:50:33;;;;;;;;;;;;;;;16.59;100.00;95847.13;10468969;28;1761;-78
2023/09/09 02:55:37;;;;;;;;;;;;;;;16.60;100.00;95848.72;10467618;28;1491;-79
2023/09/09 03:00:45;;;;;;;;;;;;;;;16.55;100.00;95839.94;10491868;28;988;-80
2023/09/09 03:05:50;;;;;;;;;;;;;;;16.50;100.00;95843.56;10480663;28;1906;-77
2023/09/09 03:10:56;;;;;;;;;;;;;;;16.47;100.00;95838.72;10474511;28;1538;-77
2023/09/09 03:16:05;;;;;;;;;;;;;;;16.39;100.00;95836.78;10463721;28;1071;-76
2023/09/09 03:21:13;;;;;;;;;;;;;;;16.30;100.00;95844.84;10477819;28;1337;-79
2023/09/09 03:26:22;;;;;;;;;;;;;;;16.24;100.00;95837.94;10474205;28;1913;-78
2023/09/09 03:31:37;;;;;;;;;;;;;;;16.28;100.00;95838.13;10470286;28;7274;-78
2023/09/09 03:36:55;;;;;;;;;;;;;;;16.20;100.00;95848.59;10439736;28;5364;-77
2023/09/09 03:41:58;;;;;;;;;;;;;;;16.14;100.00;95838.97;10447606;28;5261;-78
2023/09/09 03:47:06;;;;;;;;;;;;;;;16.08;100.00;95848.34;10465788;28;1913;-78
2023/09/09 03:52:11;;;;;;;;;;;;;;;16.04;100.00;95852.78;10454665;28;2790;-78
2023/09/09 03:57:18;;;;;;;;;;;;;;;15.93;100.00;95852.22;10462031;28;1754;-79
2023/09/09 04:02:21;;;;;;;;;;;;;;;15.91;100.00;95840.88;10431260;28;1334;-78
2023/09/09 04:07:35;;;;;;;;;;;;;;;15.88;100.00;95846.09;10426961;28;5297;-79
2023/09/09 04:12:39;;;;;;;;;;;;;;;15.83;100.00;95862.47;10449127;28;1410;-79
2023/09/09 04:17:50;;;;;;;;;;;;;;;15.78;100.00;95846.34;10486835;28;1122;-79
2023/09/09 04:23:07;;;;;;;;;;;;;;;15.79;100.00;95861.50;10482355;28;1386;-79
2023/09/09 04:28:14;;;;;;;;;;;;;;;15.72;100.00;95863.81;10487428;28;1913;-79
2023/09/09 04:33:21;;;;;;;;;;;;;;;15.60;100.00;95867.81;10467440;28;1373;-79
2023/09/09 04:38:28;;;;;;;;;;;;;;;15.64;100.00;95879.66;10443296;28;1394;-79
2023/09/09 04:43:35;;;;;;;;;;;;;;;15.60;100.00;95867.81;10483522;28;8164;-79
2023/09/09 04:48:40;;;;;;;;;;;;;;;15.72;100.00;95871.94;10475498;28;1914;-80
2023/09/09 04:53:43;;;;;;;;;;;;;;;15.77;100.00;95874.53;10479401;28;1734;-79
2023/09/09 04:58:50;;;;;;;;;;;;;;;15.91;100.00;95875.31;10462983;28;1494;-80
2023/09/09 05:03:58;;;;;;;;;;;;;;;16.00;100.00;95872.69;10458552;28;1558;-79
2023/09/09 05:09:02;;;;;;;;;;;;;;;16.13;100.00;95872.63;10489852;28;1914;-79
2023/09/09 05:14:07;;;;;;;;;;;;;;;16.28;100.00;95870.66;10470728;28;1628;-79
2023/09/09 05:19:14;;;;;;;;;;;;;;;16.49;100.00;95878.03;10476103;28;1612;-79
2023/09/09 05:24:17;;;;;;;;;;;;;;;16.64;100.00;95892.34;10477030;28;1523;-79
2023/09/09 05:29:23;;;;;;;;;;;;;;;16.95;100.00;95893.19;10488700;28;1975;-78
2023/09/09 05:34:27;;;;;;;;;;;;;;;17.14;100.00;95892.19;10469989;28;1504;-79
2023/09/09 05:39:31;;;;;;;;;;;;;;;17.30;100.00;95896.06;10468644;28;2170;-79
2023/09/09 05:44:36;;;;;;;;;;;;;;;17.36;100.00;95891.31;10469741;28;5474;-78
2023/09/09 05:55:02;;;;;;;;;;;;;;;17.80;100.00;95901.22;10456661;28;1425;-78
2023/09/09 06:00:23;;;;;;;;;;;;;;;17.89;100.00;95895.81;10467234;28;1147;-78
2023/09/09 06:05:36;;;;;;;;;;;;;;;18.23;100.00;95900.50;10465402;28;1977;-78
2023/09/09 06:10:42;;;;;;;;;;;;;;;18.41;100.00;95896.69;10443442;28;1454;-78
2023/09/09 06:15:48;;;;;;;;;;;;;;;18.58;100.00;95895.88;10470188;28;1055;-79
2023/09/09 06:20:57;;;;;;;;;;;;;;;18.79;100.00;95883.22;10468016;28;1354;-79
2023/09/09 06:26:03;;;;;;;;;;;;;;;19.00;100.00;95890.69;10461088;28;1973;-79
2023/09/09 06:31:07;;;;;;;;;;;;;;;19.29;100.00;95889.97;10476329;28;1295;-80
2023/09/09 06:36:20;;;;;;;;;;;;;;;19.63;100.00;95889.06;10478895;28;2329;-79
2023/09/09 06:41:24;;;;;;;;;;;;;;;19.78;100.00;95893.94;10466224;28;5070;-80
2023/09/09 06:46:29;;;;;;;;;;;;;;;20.08;100.00;95892.00;10433612;28;1921;-79
2023/09/09 06:51:32;;;;;;;;;;;;;;;20.39;100.00;95905.25;10450729;28;1330;-79
2023/09/09 06:56:36;;;;;;;;;;;;;;;20.72;100.00;95893.63;10447858;28;1458;-80
2023/09/09 07:01:42;;;;;;;;;;;;;;;20.89;100.00;95892.66;10487711;28;1336;-79
2023/09/09 07:06:45;;;;;;;;;;;;;;;21.01;100.00;95898.97;10469232;28;1918;-79
2023/09/09 07:12:12;;;;;;;;;;;;;;;21.32;100.00;95900.44;10454895;28;1744;-79
2023/09/09 07:17:17;;;;;;;;;;;;;;;21.46;100.00;95895.44;10469546;28;1041;-79
2023/09/09 07:22:23;;;;;;;;;;;;;;;21.64;100.00;95906.19;10464152;28;1408;-79
2023/09/09 07:27:27;;;;;;;;;;;;;;;22.07;100.00;95895.41;10437890;28;2024;-80
2023/09/09 07:32:35;;;;;;;;;;;;;;;21.99;100.00;95903.75;10465879;28;2370;-78
2023/09/09 07:37:45;;;;;;;;;;;;;;;22.48;100.00;95890.81;10446798;28;1508;-80
2023/09/09 07:42:53;;;;;;;;;;;;;;;22.78;100.00;95887.75;10418914;28;5145;-78
2023/09/09 07:47:57;;;;;;;;;;;;;;;22.67;100.00;95888.22;10477511;28;1906;-78
2023/09/09 07:53:00;;;;;;;;;;;;;;;22.79;100.00;95889.34;10453668;28;1452;-79
2023/09/09 07:58:03;;;;;;;;;;;;;;;23.05;100.00;95891.66;10457425;28;1463;-78
2023/09/09 08:03:10;;;;;;;;;;;;;;;23.27;100.00;95898.47;10443340;28;1364;-79
2023/09/09 08:08:18;;;;;;;;;;;;;;;23.56;100.00;95892.59;10471309;28;1910;-78
2023/09/09 08:13:22;;;;;;;;;;;;;;;23.61;100.00;95897.00;10462751;28;1449;-79
2023/09/09 08:18:28;;;;;;;;;;;;;;;23.81;100.00;95892.44;10466530;28;992;-78
2023/09/09 08:23:33;;;;;;;;;;;;;;;23.85;100.00;95902.31;10477588;28;1377;-78
2023/09/09 08:28:36;;;;;;;;;;;;;;;24.38;100.00;95896.50;10481109;28;2411;-78
2023/09/09 08:33:42;;;;;;;;;;;;;;;24.67;100.00;95895.94;10466345;28;1723;-79
2023/09/09 08:38:46;;;;;;;;;;;;;;;24.66;100.00;95896.31;10477709;28;1397;-79
2023/09/09 08:43:49;;;;;;;;;;;;;;;24.67;100.00;95898.69;10470259;28;5188;-79
2023/09/09 08:49:02;;;;;;;;;;;;;;;24.89;100.00;95893.63;10475011;28;1911;-79
2023/09/09 08:54:10;;;;;;;;;;;;;;;24.84;100.00;95896.66;10473330;28;1437;-79
2023/09/09 08:59:16;;;;;;;;;;;;;;;24.88;100.00;95897.56;10473147;28;1102;-79
2023/09/09 09:04:31;;;;;;;;;;;;;;;25.39;100.00;95897.34;10477736;28;1362;-79
2023/09/09 09:09:38;;;;;;;;;;;;;;;25.38;100.00;95895.75;10440492;28;1980;-80
2023/09/09 09:14:43;;;;;;;;;;;;;;;25.73;100.00;95898.34;10477220;28;1451;-80
2023/09/09 09:19:53;;;;;;;;;;;;;;;25.65;100.00;95908.44;10484234;28;1358;-79
2023/09/09 09:24:57;;;;;;;;;;;;;;;25.56;100.00;95891.34;10471863;28;1392;-79
2023/09/09 09:30:06;;;;;;;;;;;;;;;25.52;100.00;95898.75;10438131;28;1915;-80
2023/09/09 09:35:10;;;;;;;;;;;;;;;25.64;100.00;95887.56;10484942;28;1409;-80
2023/09/09 09:40:16;;;;;;;;;;;;;;;25.88;100.00;95881.69;10451899;28;5136;-78
2023/09/09 09:45:33;;;;;;;;;;;;;;;25.68;100.00;95877.41;10462339;28;1453;-79
2023/09/09 09:50:40;;;;;;;;;;;;;;;26.27;100.00;95878.72;10490737;28;1905;-79
2023/09/09 09:55:47;;;;;;;;;;;;;;;26.49;100.00;95874.34;10476614;28;1373;-79
2023/09/09 10:00:58;;;;;;;;;;;;;;;26.67;100.00;95874.56;10474005;28;1025;-79
2023/09/09 10:06:08;;;;;;;;;;;;;;;26.60;100.00;95880.00;10476204;28;1651;-80
2023/09/09 10:11:15;;;;;;;;;;;;;;;26.78;100.00;95872.72;10481284;28;1913;-79
2023/09/09 10:16:28;;;;;;;;;;;;;;;26.62;100.00;95870.16;10476967;28;1075;-79
2023/09/09 10:21:34;;;;;;;;;;;;;;;26.17;100.00;95873.06;10470965;28;2433;-80
2023/09/09 10:26:44;;;;;;;;;;;;;;;26.44;100.00;95862.84;10448280;28;1910;-78
2023/09/09 10:31:49;;;;;;;;;;;;;;;26.65;100.00;95866.66;10473619;28;1459;-80
2023/09/09 10:36:52;;;;;;;;;;;;;;;26.69;100.00;95861.19;10464015;28;1374;-78
2023/09/09 10:42:07;;;;;;;;;;;;;;;26.55;100.00;95858.25;10449851;28;1628;-79
2023/09/09 10:47:19;;;;;;;;;;;;;;;26.95;100.00;95857.53;10454911;28;1989;-78
2023/09/09 10:52:25;;;;;;;;;;;;;;;27.15;100.00;95858.19;10471503;28;1416;-78
2023/09/09 10:57:29;;;;;;;;;;;;;;;26.34;100.00;95856.00;10482641;28;957;-78
2023/09/09 11:02:35;;;;;;;;;;;;;;;26.22;100.00;95853.47;10472340;28;1393;-78
2023/09/09 11:07:39;;;;;;;;;;;;;;;26.24;100.00;95851.91;10472958;28;1913;-78
2023/09/09 11:12:42;;;;;;;;;;;;;;;26.27;100.00;95851.16;10453277;28;1274;-81
2023/09/09 11:17:48;;;;;;;;;;;;;;;26.57;100.00;95855.91;10468110;28;2278;-78
2023/09/09 11:23:02;;;;;;;;;;;;;;;26.51;100.00;95849.13;10449749;28;1413;-80
2023/09/09 11:28:07;;;;;;;;;;;;;;;26.31;100.00;95856.72;10477275;28;1909;-79
2023/09/09 11:33:16;;;;;;;;;;;;;;;26.57;100.00;95851.19;10471681;28;1369;-80
2023/09/09 11:38:23;;;;;;;;;;;;;;;26.78;100.00;95847.88;10478869;28;1401;-78
2023/09/09 11:43:26;;;;;;;;;;;;;;;27.10;100.00;95842.78;10470148;28;5062;-77
2023/09/09 11:48:33;;;;;;;;;;;;;;;27.02;100.00;95841.06;10465102;28;1988;-78
2023/09/09 11:53:37;;;;;;;;;;;;;;;26.87;100.00;95844.84;10451221;28;1342;-79
2023/09/09 11:58:46;;;;;;;;;;;;;;;27.23;100.00;95831.44;10483504;28;1032;-79
2023/09/09 12:03:50;;;;;;;;;;;;;;;26.87;100.00;95847.63;10469940;28;1453;-78
2023/09/09 12:08:54;;;;;;;;;;;;;;;26.92;100.00;95837.03;10463285;28;1906;-79
2023/09/09 12:14:03;;;;;;;;;;;;;;;26.77;100.00;95834.47;10469608;28;2511;-79
2023/09/09 12:19:07;;;;;;;;;;;;;;;26.85;100.00;95836.97;10470236;28;1519;-79
2023/09/09 12:24:14;;;;;;;;;;;;;;;26.89;100.00;95826.75;10466287;28;1708;-80
2023/09/09 12:29:20;;;;;;;;;;;;;;;27.22;100.00;95822.38;10466913;28;1969;-79
2023/09/09 12:34:27;;;;;;;;;;;;;;;27.26;100.00;95823.22;10475842;28;1603;-79
2023/09/09 12:39:45;;;;;;;;;;;;;;;27.33;100.00;95816.97;10437229;28;1330;-79
2023/09/09 12:44:50;;;;;;;;;;;;;;;27.43;100.00;95821.78;10458046;28;1088;-79
2023/09/09 12:49:55;;;;;;;;;;;;;;;27.62;100.00;95813.28;10482901;28;1918;-79
2023/09/09 12:54:59;;;;;;;;;;;;;;;27.73;100.00;95816.13;10474960;28;1385;-80
2023/09/09 13:00:06;;;;;;;;;;;;;;;27.79;100.00;95816.56;10440436;28;1211;-79
2023/09/09 13:05:09;;;;;;;;;;;;;;;27.73;100.00;95814.16;10455470;28;1549;-79
2023/09/09 13:10:13;;;;;;;;;;;;;;;28.05;100.00;95807.25;10459587;28;2293;-79
2023/09/09 13:15:18;;;;;;;;;;;;;;;28.12;100.00;95818.34;10437355;28;1593;-78
2023/09/09 13:20:23;;;;;;;;;;;;;;;27.96;100.00;95819.44;10484397;28;1601;-79
2023/09/09 13:25:29;;;;;;;;;;;;;;;27.85;100.00;95815.03;10485830;28;1415;-79
2023/09/09 13:30:35;;;;;;;;;;;;;;;27.83;100.00;95801.59;10475436;28;1977;-80
2023/09/09 13:35:37;;;;;;;;;;;;;;;27.83;100.00;95815.41;10460743;28;1355;-78
2023/09/09 13:40:42;;;;;;;;;;;;;;;27.93;100.00;95811.94;10441465;28;6214;-79
2023/09/09 13:45:50;;;;;;;;;;;;;;;27.78;100.00;95807.47;10475414;28;954;-78
2023/09/09 13:51:01;;;;;;;;;;;;;;;27.82;100.00;95804.75;10469177;28;1967;-79
2023/09/09 13:56:05;;;;;;;;;;;;;;;27.79;100.00;95803.53;10468120;28;1476;-79
2023/09/09 14:01:09;;;;;;;;;;;;;;;27.69;100.00;95799.53;10465729;28;1182;-78
2023/09/09 14:06:12;;;;;;;;;;;;;;;27.73;100.00;95802.31;10467418;28;2294;-78
2023/09/09 14:11:19;;;;;;;;;;;;;;;27.68;100.00;95797.97;10486199;28;1980;-78
2023/09/09 14:16:22;;;;;;;;;;;;;;;27.79;100.00;95789.72;10435158;28;1732;-77
2023/09/09 14:21:29;;;;;;;;;;;;;;;27.68;100.00;95799.91;10471843;28;1649;-78
2023/09/09 14:26:34;;;;;;;;;;;;;;;27.67;100.00;95787.25;10472073;28;1616;-79
2023/09/09 14:31:38;;;;;;;;;;;;;;;27.73;100.00;95788.50;10472294;28;1914;-78
2023/09/09 14:36:43;;;;;;;;;;;;;;;27.69;100.00;95768.38;10458755;28;1370;-79
2023/09/09 14:41:50;;;;;;;;;;;;;;;27.60;100.00;95776.94;10485927;28;5033;-80
2023/09/09 14:47:04;;;;;;;;;;;;;;;27.55;100.00;95773.75;10441255;28;1464;-78
2023/09/09 14:52:08;;;;;;;;;;;;;;;27.50;100.00;95772.16;10471644;28;1989;-77
2023/09/09 14:57:12;;;;;;;;;;;;;;;27.46;100.00;95766.59;10464340;28;1618;-79
2023/09/09 15:02:25;;;;;;;;;;;;;;;27.50;100.00;95774.91;10482053;28;2396;-78
2023/09/09 15:07:29;;;;;;;;;;;;;;;27.26;100.00;95779.06;10466680;28;1521;-80
2023/09/09 15:12:36;;;;;;;;;;;;;;;27.31;100.00;95775.94;10454260;28;1910;-80
2023/09/09 15:23:01;;;;;;;;;;;;;;;27.12;100.00;95784.44;10474720;28;1413;-79
2023/09/09 15:28:04;;;;;;;;;;;;;;;27.00;100.00;95777.22;10468131;28;1918;-79
2023/09/09 15:33:08;;;;;;;;;;;;;;;26.93;100.00;95783.47;10453328;28;1381;-78
2023/09/09 15:38:15;;;;;;;;;;;;;;;26.85;100.00;95781.81;10485458;28;1326;-78
2023/09/09 15:43:18;;;;;;;;;;;;;;;26.82;100.00;95782.53;10467365;28;5078;-79
2023/09/09 15:48:24;;;;;;;;;;;;;;;26.63;100.00;95779.97;10449216;28;1905;-79
2023/09/09 15:53:30;;;;;;;;;;;;;;;26.56;100.00;95777.94;10443891;28;1460;-79
2023/09/09 15:58:34;;;;;;;;;;;;;;;26.44;100.00;95782.91;10469644;28;2432;-80
2023/09/09 16:03:39;;;;;;;;;;;;;;;26.38;100.00;95776.91;10453431;28;1347;-79
2023/09/09 16:08:44;;;;;;;;;;;;;;;26.28;100.00;95785.84;10472374;28;1977;-79
2023/09/09 16:13:53;;;;;;;;;;;;;;;26.25;100.00;95781.06;10476530;28;984;-79
2023/09/09 16:19:00;;;;;;;;;;;;;;;26.14;100.00;95780.91;10473577;28;1505;-80
2023/09/09 16:24:09;;;;;;;;;;;;;;;26.08;100.00;95774.97;10472941;28;1492;-80
2023/09/09 16:29:12;;;;;;;;;;;;;;;26.02;100.00;95779.22;10459254;28;1992;-79
2023/09/09 16:34:28;;;;;;;;;;;;;;;25.98;100.00;95788.59;10441998;28;1344;-79
2023/09/09 16:39:33;;;;;;;;;;;;;;;25.84;100.00;95789.97;10464792;28;1437;-79
2023/09/09 16:44:43;;;;;;;;;;;;;;;25.67;100.00;95790.47;10476177;28;5330;-79
2023/09/09 16:49:48;;;;;;;;;;;;;;;25.65;100.00;95794.78;10469529;28;1973;-79
2023/09/09 16:54:51;;;;;;;;;;;;;;;25.51;100.00;95792.56;10453361;28;1523;-79
2023/09/09 16:59:58;;;;;;;;;;;;;;;25.39;100.00;95784.53;10490585;28;984;-80
2023/09/09 17:05:05;;;;;;;;;;;;;;;25.34;100.00;95789.19;10475316;28;1532;-79
2023/09/09 17:10:12;;;;;;;;;;;;;;;25.19;100.00;95795.59;10465189;28;1913;-79
2023/09/09 17:15:26;;;;;;;;;;;;;;;25.06;100.00;95794.97;10467768;28;1312;-78
2023/09/09 17:20:31;;;;;;;;;;;;;;;25.05;100.00;95806.34;10481005;28;1333;-79
2023/09/09 17:25:43;;;;;;;;;;;;;;;24.86;100.00;95807.16;10464529;28;1433;-79
2023/09/09 17:30:49;;;;;;;;;;;;;;;24.58;100.00;95812.13;10471899;28;1913;-79
2023/09/09 17:35:55;;;;;;;;;;;;;;;24.49;100.00;95809.59;10459583;28;1199;-79
2023/09/09 17:41:00;;;;;;;;;;;;;;;24.29;100.00;95814.25;10466198;28;5093;-79
2023/09/09 17:46:04;;;;;;;;;;;;;;;24.15;100.00;95822.19;10449601;28;1310;-79
2023/09/09 17:51:08;;;;;;;;;;;;;;;23.89;100.00;95822.81;10470193;28;2239;-78
2023/09/09 17:56:27;;;;;;;;;;;;;;;23.73;100.00;95833.84;10474163;28;1541;-78
2023/09/09 18:01:40;;;;;;;;;;;;;;;23.51;100.00;95829.75;10448715;28;1366;-79
2023/09/09 18:06:44;;;;;;;;;;;;;;;23.40;100.00;95836.91;10476330;28;1527;-79
2023/09/09 18:11:48;;;;;;;;;;;;;;;23.25;100.00;95843.19;10463425;28;1967;-79
2023/09/09 18:16:55;;;;;;;;;;;;;;;23.31;100.00;95850.81;10466453;28;1219;-79
2023/09/09 18:21:59;;;;;;;;;;;;;;;23.05;100.00;95858.75;10473818;28;1504;-79
2023/09/09 18:27:08;;;;;;;;;;;;;;;23.16;100.00;95863.38;10471691;28;1468;-79
2023/09/09 18:32:13;;;;;;;;;;;;;;;22.94;100.00;95869.41;10450316;28;1918;-77
2023/09/09 18:37:20;;;;;;;;;;;;;;;22.78;100.00;95871.31;10482456;28;1334;-78
2023/09/09 18:42:31;;;;;;;;;;;;;;;22.62;100.00;95880.25;10473626;28;5142;-78
2023/09/09 18:53:05;;;;;;;;;;;;;;;22.41;100.00;95885.13;10481889;28;2048;-79
2023/09/09 18:58:08;;;;;;;;;;;;;;;22.24;100.00;95893.59;10468778;28;995;-80
2023/09/09 19:03:10;;;;;;;;;;;;;;;22.17;100.00;95896.13;10462597;28;1384;-80
2023/09/09 19:08:14;;;;;;;;;;;;;;;22.04;100.00;95893.38;10476359;28;1975;-79
2023/09/09 19:13:17;;;;;;;;;;;;;;;22.02;100.00;95906.63;10481132;28;1222;-78
2023/09/09 19:18:20;;;;;;;;;;;;;;;21.95;100.00;95906.41;10456276;28;1345;-79
2023/09/09 19:23:22;;;;;;;;;;;;;;;21.89;100.00;95907.78;10476729;28;1316;-80
2023/09/09 19:28:24;;;;;;;;;;;;;;;21.78;100.00;95901.94;10470729;28;1926;-79
2023/09/09 19:33:27;;;;;;;;;;;;;;;21.71;100.00;95906.41;10474364;28;1711;-79
2023/09/09 19:38:29;;;;;;;;;;;;;;;21.66;100.00;95906.63;10464965;28;1380;-80
2023/09/09 19:43:32;;;;;;;;;;;;;;;21.63;100.00;95913.59;10461528;28;5175;-79
2023/09/09 19:48:34;;;;;;;;;;;;;;;21.55;100.00;95918.00;10468057;28;1967;-79
2023/09/09 19:53:37;;;;;;;;;;;;;;;21.48;100.00;95912.28;10512788;28;1611;-79
2023/09/09 19:58:39;;;;;;;;;;;;;;;21.37;100.00;95913.88;10506097;28;1166;-80
2023/09/09 20:03:42;;;;;;;;;;;;;;;21.33;100.00;95914.91;10485822;28;1403;-78
2023/09/09 20:08:45;;;;;;;;;;;;;;;21.29;100.00;95918.31;10482932;28;1906;-80
2023/09/09 20:13:47;;;;;;;;;;;;;;;21.31;100.00;95921.53;10494800;28;1179;-79
2023/09/09 20:18:50;;;;;;;;;;;;;;;21.25;100.00;95925.56;10495404;28;1447;-79
2023/09/09 20:23:53;;;;;;;;;;;;;;;21.18;100.00;95919.03;10487236;28;1459;-80
2023/09/09 20:28:55;;;;;;;;;;;;;;;21.13;100.00;95920.06;10484955;28;1914;-80
2023/09/09 20:33:57;;;;;;;;;;;;;;;21.10;100.00;95914.47;10482476;28;1416;-79
2023/09/09 20:39:00;;;;;;;;;;;;;;;20.90;100.00;95922.38;10473246;28;2385;-81
2023/09/09 20:44:02;;;;;;;;;;;;;;;20.83;100.00;95922.13;10495204;28;5274;-80
2023/09/09 20:49:05;;;;;;;;;;;;;;;20.76;100.00;95922.66;10503317;28;1914;-79
2023/09/09 20:54:07;;;;;;;;;;;;;;;20.66;100.00;95931.25;10486694;28;1781;-79
2023/09/09 20:59:09;;;;;;;;;;;;;;;20.64;100.00;95938.19;10474834;28;1543;-80
2023/09/09 21:04:12;;;;;;;;;;;;;;;20.58;100.00;95931.34;10473366;28;1423;-79
2023/09/09 21:09:18;;;;;;;;;;;;;;;20.50;100.00;95930.28;10481123;28;1905;-81
2023/09/09 21:15:00;;;;;;;;;;;;;;;20.49;100.00;95928.69;10482086;28;1107;-79
2023/09/09 21:20:03;;;;;;;;;;;;;;;20.36;100.00;95926.97;10473892;28;1490;-80
2023/09/09 21:25:08;;;;;;;;;;;;;;;20.25;100.00;95929.31;10472601;28;1599;-79
2023/09/09 21:30:11;;;;;;;;;;;;;;;20.23;100.00;95932.38;10463992;28;1910;-80
2023/09/09 21:35:13;;;;;;;;;;;;;;;20.27;100.00;95924.31;10482236;28;2405;-79
2023/09/09 21:40:16;;;;;;;;;;;;;;;20.27;100.00;95932.50;10495757;28;5045;-80
2023/09/09 21:45:18;;;;;;;;;;;;;;;20.18;100.00;95929.03;10462750;28;1536;-79
2023/09/09 21:50:24;;;;;;;;;;;;;;;20.08;100.00;95930.19;10482067;28;1973;-80
2023/09/09 21:55:27;;;;;;;;;;;;;;;20.05;100.00;95925.41;10481038;28;1443;-79
2023/09/09 22:00:29;;;;;;;;;;;;;;;20.00;100.00;95922.06;10490451;28;1352;-80
2023/09/09 22:05:32;;;;;;;;;;;;;;;19.92;100.00;95921.00;10482009;28;1083;-80
2023/09/09 22:10:34;;;;;;;;;;;;;;;20.04;100.00;95920.28;10472193;28;1926;-79
2023/09/09 22:15:37;;;;;;;;;;;;;;;20.01;100.00;95913.56;10481621;28;1095;-80
2023/09/09 22:20:40;;;;;;;;;;;;;;;19.85;100.00;95920.69;10464001;28;1372;-80
2023/09/09 22:25:43;;;;;;;;;;;;;;;19.82;100.00;95918.66;10481425;28;1429;-80
2023/09/09 22:30:45;;;;;;;;;;;;;;;19.84;100.00;95914.44;10499239;28;2550;-79
2023/09/09 22:35:49;;;;;;;;;;;;;;;19.67;100.00;95922.72;10483561;28;1493;-81
2023/09/09 22:40:51;;;;;;;;;;;;;;;19.73;100.00;95924.16;10474478;28;5051;-78
2023/09/09 22:45:54;;;;;;;;;;;;;;;19.74;100.00;95924.94;10479050;28;1509;-79
2023/09/09 22:50:56;;;;;;;;;;;;;;;19.67;100.00;95930.91;10462022;28;1958;-78
2023/09/09 22:55:59;;;;;;;;;;;;;;;19.66;100.00;95929.31;10482849;28;1594;-79
2023/09/09 23:01:02;;;;;;;;;;;;;;;19.53;100.00;95933.00;10463191;28;1821;-79
2023/09/09 23:06:05;;;;;;;;;;;;;;;19.54;100.00;95929.19;10483576;28;1596;-79
2023/09/09 23:11:07;;;;;;;;;;;;;;;19.44;100.00;95933.84;10471838;28;1914;-79
2023/09/09 23:16:10;;;;;;;;;;;;;;;19.41;100.00;95931.00;10471004;28;1234;-79
2023/09/09 23:21:12;;;;;;;;;;;;;;;19.38;100.00;95937.88;10475682;28;1364;-79
2023/09/09 23:26:15;;;;;;;;;;;;;;;19.23;100.00;95932.97;10478966;28;1316;-79
2023/09/09 23:31:18;;;;;;;;;;;;;;;19.21;100.00;95935.19;10485043;28;2034;-79
2023/09/09 23:36:20;;;;;;;;;;;;;;;19.16;100.00;95936.19;10481903;28;1041;-79
2023/09/09 23:41:22;;;;;;;;;;;;;;;19.16;100.00;95933.47;10481381;28;1328;-78
2023/09/09 23:46:25;;;;;;;;;;;;;;;19.18;100.00;95930.41;10480436;28;1626;-79
2023/09/09 23:51:27;;;;;;;;;;;;;;;19.17;100.00;95923.34;10482518;28;1917;-78
2023/09/09 23:56:29;;;;;;;;;;;;;;;19.34;100.00;95920.59;10497158;28;1399;-79
